Time;durP1;ratioP1;P1;durP2;ratioP2;P2;SDS_P1;SDS_P2;PMS_P1;PMS_P2;Temp;Humidity;BMP_temperature;BMP_pressure;BME280_temperature;BME280_humidity;BME280_pressure;Samples;Min_cycle;Max_cycle;Signal;HPM_P1;HPM_P2
2021/03/01 00:01:31;;;;;;;12.35;8.90;;;1.20;99.90;;;;;;5116991;28;20287;-84
2021/03/01 00:03:57;;;;;;;18.15;8.38;;;1.20;99.90;;;;;;5116738;28;20246;-84
2021/03/01 00:06:24;;;;;;;18.20;10.27;;;1.10;99.90;;;;;;5116634;28;20657;-83
2021/03/01 00:08:50;;;;;;;15.93;8.93;;;1.10;99.90;;;;;;5116563;28;20251;-82
2021/03/01 00:11:17;;;;;;;16.67;8.75;;;1.10;99.90;;;;;;5116114;28;20208;-83
2021/03/01 00:13:43;;;;;;;13.15;9.27;;;1.10;99.90;;;;;;5116125;28;20200;-84
2021/03/01 00:16:10;;;;;;;16.38;7.90;;;1.10;99.90;;;;;;5116431;28;20327;-84
2021/03/01 00:18:36;;;;;;;13.27;8.00;;;1.10;99.90;;;;;;5116624;28;20296;-83
2021/03/01 00:21:03;;;;;;;13.32;8.63;;;1.10;99.90;;;;;;5064120;28;20204;-84
2021/03/01 00:23:31;;;;;;;17.17;9.95;;;1.10;99.90;;;;;;5113010;28;20204;-84
2021/03/01 00:25:59;;;;;;;9.98;8.35;;;1.00;99.90;;;;;;5116297;28;20582;-83
2021/03/01 00:28:26;;;;;;;8.05;6.65;;;1.00;99.90;;;;;;5076890;28;20659;-83
2021/03/01 00:30:52;;;;;;;11.82;8.23;;;1.00;99.90;;;;;;5114114;28;20243;-84
2021/03/01 00:33:20;;;;;;;14.00;8.00;;;1.00;99.90;;;;;;5116402;28;20303;-84
2021/03/01 00:35:46;;;;;;;13.80;9.30;;;1.00;99.90;;;;;;5063898;28;20599;-83
2021/03/01 00:38:14;;;;;;;11.40;7.57;;;0.80;99.90;;;;;;5116040;28;20208;-84
2021/03/01 00:40:42;;;;;;;13.25;7.18;;;0.80;99.90;;;;;;5064566;28;20285;-84
2021/03/01 00:43:08;;;;;;;9.13;6.68;;;0.80;99.90;;;;;;5114531;28;20196;-84
2021/03/01 00:45:34;;;;;;;13.00;8.52;;;0.70;99.90;;;;;;5115915;28;20247;-83
2021/03/01 00:48:01;;;;;;;15.65;9.77;;;0.70;99.90;;;;;;5116067;28;20291;-83
2021/03/01 00:50:28;;;;;;;12.75;8.10;;;0.60;99.90;;;;;;5116110;28;20268;-83
2021/03/01 00:52:54;;;;;;;11.93;6.88;;;0.60;99.90;;;;;;5115988;28;20291;-83
2021/03/01 00:55:20;;;;;;;12.10;9.25;;;0.50;99.90;;;;;;5112424;28;20200;-81
2021/03/01 00:57:48;;;;;;;12.68;7.57;;;0.60;99.90;;;;;;5109231;28;20661;-83
2021/03/01 01:00:18;;;;;;;9.45;6.63;;;0.60;99.90;;;;;;5115838;28;20211;-83
2021/03/01 01:02:44;;;;;;;12.07;9.52;;;0.60;99.90;;;;;;5115733;28;20257;-83
2021/03/01 01:05:12;;;;;;;15.65;7.00;;;0.70;99.90;;;;;;5115526;28;20705;-84
2021/03/01 01:07:39;;;;;;;14.77;8.50;;;0.70;99.90;;;;;;5115186;28;20236;-84
2021/03/01 01:10:07;;;;;;;11.25;8.75;;;0.70;99.90;;;;;;5115022;28;20208;-84
2021/03/01 01:12:33;;;;;;;11.90;9.02;;;0.60;99.90;;;;;;5063195;28;20205;-83
2021/03/01 01:15:00;;;;;;;11.02;7.38;;;0.60;99.90;;;;;;5115684;28;20279;-83
2021/03/01 01:17:27;;;;;;;11.07;7.60;;;0.50;99.90;;;;;;5109616;28;20204;-83
2021/03/01 01:19:53;;;;;;;11.55;6.68;;;0.50;99.90;;;;;;5115311;28;20236;-82
2021/03/01 01:22:20;;;;;;;12.82;7.93;;;0.50;99.90;;;;;;5114429;28;20232;-84
2021/03/01 01:24:46;;;;;;;14.88;9.02;;;0.50;99.90;;;;;;5114977;28;20207;-83
2021/03/01 01:27:12;;;;;;;17.58;9.00;;;0.50;99.90;;;;;;5114053;28;20277;-83
2021/03/01 01:29:39;;;;;;;13.55;7.95;;;0.40;99.90;;;;;;5115302;28;20238;-84
2021/03/01 01:32:06;;;;;;;14.82;9.20;;;0.40;99.90;;;;;;5115167;28;20235;-84
2021/03/01 01:34:33;;;;;;;11.50;8.35;;;0.40;99.90;;;;;;5115123;28;20621;-85
2021/03/01 01:36:59;;;;;;;11.20;6.45;;;0.50;99.90;;;;;;5115696;28;20333;-84
2021/03/01 01:39:25;;;;;;;13.35;7.95;;;0.60;99.90;;;;;;5116273;28;20216;-84
2021/03/01 01:41:52;;;;;;;21.60;12.20;;;0.60;99.90;;;;;;5114905;28;20206;-84
2021/03/01 01:44:18;;;;;;;19.40;11.57;;;0.60;99.90;;;;;;5116052;28;20215;-85
2021/03/01 01:46:44;;;;;;;21.67;12.30;;;0.60;99.90;;;;;;5116355;28;20242;-84
2021/03/01 01:49:11;;;;;;;27.85;12.48;;;0.60;99.90;;;;;;5136216;28;20212;-85
2021/03/01 01:51:39;;;;;;;23.00;13.75;;;0.50;99.90;;;;;;5117003;28;20200;-85
2021/03/01 01:54:07;;;;;;;18.70;11.20;;;0.40;99.90;;;;;;5099781;28;20621;-86
2021/03/01 01:56:34;;;;;;;17.10;9.60;;;0.40;99.90;;;;;;5111607;28;20238;-86
2021/03/01 01:59:02;;;;;;;11.45;8.50;;;0.30;99.90;;;;;;5119418;28;20192;-85
2021/03/01 02:01:28;;;;;;;13.90;8.05;;;0.20;99.90;;;;;;5119524;28;20235;-85
2021/03/01 02:04:01;;;;;;;15.27;8.15;;;0.20;99.90;;;;;;5101440;28;20283;-85
2021/03/01 02:06:35;;;;;;;12.18;6.75;;;0.20;99.90;;;;;;5097891;28;20593;-86
2021/03/01 02:09:12;;;;;;;13.90;7.47;;;0.20;99.90;;;;;;5094364;28;20568;-84
2021/03/01 02:11:52;;;;;;;13.18;7.90;;;0.10;99.90;;;;;;5091455;28;20292;-84
2021/03/01 02:14:30;;;;;;;13.00;7.43;;;0.20;99.90;;;;;;5094271;28;20205;-85
2021/03/01 02:16:56;;;;;;;19.10;8.55;;;0.20;99.90;;;;;;5094174;28;20674;-85
2021/03/01 02:19:25;;;;;;;11.98;7.75;;;0.30;99.90;;;;;;5096825;28;20200;-86
2021/03/01 02:21:52;;;;;;;12.63;7.18;;;0.30;99.90;;;;;;5114661;28;20231;-86
2021/03/01 02:24:25;;;;;;;12.82;9.15;;;0.30;99.90;;;;;;5114338;28;20295;-84
2021/03/01 02:26:55;;;;;;;18.75;8.20;;;0.20;99.90;;;;;;5112905;28;20693;-85
2021/03/01 02:29:23;;;;;;;12.63;6.85;;;0.20;99.90;;;;;;5114169;28;20196;-84
2021/03/01 02:31:53;;;;;;;12.70;6.95;;;0.20;99.90;;;;;;5114212;28;20292;-84
2021/03/01 02:34:21;;;;;;;12.25;7.97;;;0.20;99.90;;;;;;5114041;28;20301;-86
2021/03/01 02:36:53;;;;;;;11.23;6.93;;;0.10;99.90;;;;;;5114119;28;20287;-86
2021/03/01 02:39:26;;;;;;;11.10;6.85;;;0.10;99.90;;;;;;5114002;28;20224;-84
2021/03/01 02:41:54;;;;;;;12.60;7.72;;;0.20;99.90;;;;;;5112741;28;20228;-85
2021/03/01 02:44:21;;;;;;;10.65;7.47;;;0.20;99.90;;;;;;5114231;28;20200;-86
2021/03/01 02:46:48;;;;;;;13.30;8.00;;;0.10;99.90;;;;;;5114200;28;20224;-86
2021/03/01 02:49:16;;;;;;;11.82;7.22;;;0.00;99.90;;;;;;5110086;28;20663;-87
2021/03/01 02:51:46;;;;;;;14.80;8.07;;;0.10;99.90;;;;;;5115307;28;20291;-85
2021/03/01 02:54:14;;;;;;;14.98;7.93;;;0.00;99.90;;;;;;5114404;28;20290;-86
2021/03/01 02:56:42;;;;;;;14.57;7.85;;;0.10;99.90;;;;;;5131766;28;20513;-86
2021/03/01 02:59:10;;;;;;;12.48;7.78;;;0.10;99.90;;;;;;5136043;28;20292;-87
2021/03/01 03:01:38;;;;;;;14.70;8.23;;;0.10;99.90;;;;;;5138588;27;20184;-83
2021/03/01 03:04:07;;;;;;;15.02;8.68;;;0.10;99.90;;;;;;5103566;28;20708;-86
2021/03/01 03:06:36;;;;;;;14.07;9.13;;;0.10;99.90;;;;;;5094175;28;20252;-86
2021/03/01 03:09:07;;;;;;;14.02;7.38;;;0.10;99.90;;;;;;5090546;28;20288;-85
2021/03/01 03:11:34;;;;;;;14.75;9.00;;;0.10;99.90;;;;;;5087033;28;20288;-85
2021/03/01 03:14:03;;;;;;;16.17;9.13;;;0.10;99.90;;;;;;5090481;28;20201;-86
2021/03/01 03:16:31;;;;;;;14.25;7.90;;;0.00;99.90;;;;;;5093507;28;20299;-85
2021/03/01 03:18:59;;;;;;;12.23;7.88;;;-0.10;99.90;;;;;;5095588;28;20287;-85
2021/03/01 03:21:26;;;;;;;13.43;8.23;;;-0.20;99.90;;;;;;5113530;28;20200;-85
2021/03/01 03:23:55;;;;;;;10.20;6.60;;;-0.20;99.90;;;;;;5113733;28;20299;-86
2021/03/01 03:26:21;;;;;;;11.90;6.97;;;-0.20;99.90;;;;;;5112271;28;20238;-85
2021/03/01 03:28:47;;;;;;;12.40;8.15;;;-0.30;99.90;;;;;;5112935;28;20206;-85
2021/03/01 03:31:15;;;;;;;16.55;8.02;;;-0.30;99.90;;;;;;5113662;28;20603;-85
2021/03/01 03:33:44;;;;;;;11.70;7.45;;;-0.30;99.90;;;;;;5113399;28;20572;-86
2021/03/01 03:36:12;;;;;;;13.13;6.55;;;-0.30;99.90;;;;;;5113339;28;20684;-85
2021/03/01 03:38:44;;;;;;;11.40;6.75;;;-0.20;99.90;;;;;;5113034;28;20291;-86
2021/03/01 03:41:16;;;;;;;11.05;6.55;;;-0.20;99.90;;;;;;5108161;28;20200;-85
2021/03/01 03:43:43;;;;;;;12.48;6.90;;;-0.30;99.90;;;;;;5111467;28;20304;-86
2021/03/01 03:46:15;;;;;;;12.77;7.53;;;-0.30;99.90;;;;;;5113492;28;20224;-87
2021/03/01 03:48:45;;;;;;;15.55;7.55;;;-0.30;99.90;;;;;;5061916;28;20201;-86
2021/03/01 03:51:13;;;;;;;13.00;7.68;;;-0.30;99.90;;;;;;5113866;28;20200;-87
2021/03/01 03:53:44;;;;;;;13.38;6.78;;;-0.30;99.90;;;;;;5132597;28;20196;-85
2021/03/01 03:56:12;;;;;;;12.43;7.28;;;-0.30;99.90;;;;;;5113960;28;20208;-85
2021/03/01 03:58:45;;;;;;;12.25;8.00;;;-0.40;99.90;;;;;;5112133;28;20268;-88
2021/03/01 04:01:14;;;;;;;8.55;5.93;;;-0.40;99.90;;;;;;5113565;28;20295;-87
2021/03/01 04:03:43;;;;;;;13.35;7.70;;;-0.40;99.90;;;;;;5113208;28;20200;-86
2021/03/01 04:06:13;;;;;;;13.52;7.13;;;-0.50;99.90;;;;;;5116780;28;20587;-86
2021/03/01 04:08:40;;;;;;;13.18;6.60;;;-0.40;99.90;;;;;;5065352;28;20252;-86
2021/03/01 04:11:09;;;;;;;10.77;7.22;;;-0.40;99.90;;;;;;5116992;28;20196;-87
2021/03/01 04:13:39;;;;;;;14.68;7.25;;;-0.40;99.90;;;;;;5115580;28;20296;-86
2021/03/01 04:16:08;;;;;;;9.57;6.47;;;-0.40;99.90;;;;;;5116588;28;20250;-86
2021/03/01 04:18:37;;;;;;;10.00;6.65;;;-0.40;99.90;;;;;;5115888;28;20208;-87
2021/03/01 04:21:08;;;;;;;12.75;7.18;;;-0.40;99.90;;;;;;5116694;28;20297;-88
2021/03/01 04:23:36;;;;;;;16.63;8.82;;;-0.50;99.90;;;;;;5116406;28;20341;-86
2021/03/01 04:26:03;;;;;;;13.25;7.60;;;-0.50;99.90;;;;;;5115836;28;20314;-86
2021/03/01 04:28:32;;;;;;;13.38;8.45;;;-0.50;99.90;;;;;;5115708;28;20253;-86
2021/03/01 04:31:02;;;;;;;10.63;6.55;;;-0.60;99.90;;;;;;5116584;28;20210;-85
2021/03/01 04:33:30;;;;;;;10.18;6.05;;;-0.60;99.90;;;;;;5116402;28;20291;-86
2021/03/01 04:35:58;;;;;;;9.32;7.15;;;-0.70;99.90;;;;;;5111422;28;20212;-86
2021/03/01 04:38:26;;;;;;;12.00;7.35;;;-0.70;99.90;;;;;;5116298;28;20341;-85
2021/03/01 04:40:53;;;;;;;10.40;6.32;;;-0.80;99.90;;;;;;5112902;28;20238;-86
2021/03/01 04:43:22;;;;;;;14.55;7.05;;;-0.80;99.90;;;;;;5114951;28;20207;-85
2021/03/01 04:45:52;;;;;;;13.20;7.32;;;-0.80;99.90;;;;;;5115851;28;20295;-85
2021/03/01 04:48:21;;;;;;;10.10;7.10;;;-0.80;99.90;;;;;;5080745;28;20300;-85
2021/03/01 04:50:48;;;;;;;27.13;9.75;;;-0.80;99.90;;;;;;5116228;28;20325;-87
2021/03/01 04:53:16;;;;;;;15.18;7.75;;;-0.80;99.90;;;;;;5116217;28;20291;-85
2021/03/01 04:55:44;;;;;;;12.23;7.35;;;-0.90;99.90;;;;;;5115954;28;20284;-84
2021/03/01 04:58:12;;;;;;;11.80;7.30;;;-0.90;99.90;;;;;;5119002;28;20207;-84
2021/03/01 05:00:39;;;;;;;12.77;6.85;;;-0.90;99.90;;;;;;5115759;28;20290;-86
2021/03/01 05:03:07;;;;;;;20.20;8.70;;;-0.80;99.90;;;;;;5112749;28;20208;-85
2021/03/01 05:05:34;;;;;;;11.43;6.22;;;-0.80;99.90;;;;;;5115733;28;20329;-84
2021/03/01 05:08:03;;;;;;;13.02;7.13;;;-0.70;99.90;;;;;;5112382;28;20227;-84
2021/03/01 05:10:30;;;;;;;14.30;7.18;;;-0.70;99.90;;;;;;5115584;28;20196;-84
2021/03/01 05:12:58;;;;;;;15.20;8.77;;;-0.80;99.90;;;;;;5114600;28;20283;-84
2021/03/01 05:15:24;;;;;;;13.98;8.32;;;-0.90;99.90;;;;;;5112351;28;20303;-84
2021/03/01 05:17:50;;;;;;;19.02;8.07;;;-0.90;99.90;;;;;;5114755;28;20208;-86
2021/03/01 05:20:17;;;;;;;13.55;8.00;;;-0.90;99.90;;;;;;5110841;28;20784;-83
2021/03/01 05:22:45;;;;;;;14.80;8.95;;;-0.90;99.90;;;;;;5115293;28;20206;-84
2021/03/01 05:25:12;;;;;;;18.85;10.73;;;-0.80;99.90;;;;;;5115429;28;20530;-84
2021/03/01 05:27:38;;;;;;;14.45;10.15;;;-0.80;99.90;;;;;;5114034;28;20239;-86
2021/03/01 05:30:08;;;;;;;13.15;7.63;;;-0.80;99.90;;;;;;5115078;28;20678;-84
2021/03/01 05:32:35;;;;;;;14.18;7.72;;;-0.80;99.90;;;;;;5116058;28;20291;-84
2021/03/01 05:35:01;;;;;;;19.60;10.32;;;-0.90;99.90;;;;;;5115024;28;20200;-85
2021/03/01 05:37:28;;;;;;;14.52;8.25;;;-1.00;99.90;;;;;;5117593;28;20204;-83
2021/03/01 05:39:54;;;;;;;25.95;11.27;;;-1.00;99.90;;;;;;5116640;28;20267;-84
2021/03/01 05:42:23;;;;;;;16.67;9.48;;;-1.00;99.90;;;;;;5111289;28;20284;-84
2021/03/01 05:44:50;;;;;;;16.73;9.68;;;-0.90;99.90;;;;;;5064287;28;20291;-84
2021/03/01 05:47:22;;;;;;;24.95;12.10;;;-0.90;99.90;;;;;;5116517;28;20228;-84
2021/03/01 05:49:49;;;;;;;18.23;10.52;;;-0.90;99.90;;;;;;5116674;28;20220;-84
2021/03/01 05:52:18;;;;;;;13.93;10.30;;;-0.90;99.90;;;;;;5111264;28;20282;-83
2021/03/01 05:54:46;;;;;;;20.60;9.90;;;-0.90;99.90;;;;;;5116817;28;20242;-85
2021/03/01 05:57:13;;;;;;;22.40;10.77;;;-1.00;99.90;;;;;;5115394;28;20203;-85
2021/03/01 05:59:40;;;;;;;16.23;10.20;;;-1.00;99.90;;;;;;5115534;28;20291;-83
2021/03/01 06:02:07;;;;;;;20.85;11.07;;;-1.10;99.90;;;;;;5115257;28;20719;-83
2021/03/01 06:04:38;;;;;;;14.85;10.65;;;-1.10;99.90;;;;;;5134924;28;20230;-84
2021/03/01 06:07:05;;;;;;;15.90;11.15;;;-1.00;99.90;;;;;;5138876;28;20232;-84
2021/03/01 06:09:31;;;;;;;13.65;8.90;;;-1.00;99.90;;;;;;5121121;28;20253;-84
2021/03/01 06:11:57;;;;;;;17.10;10.70;;;-1.10;99.90;;;;;;5127764;28;20248;-83
2021/03/01 06:14:24;;;;;;;15.40;9.35;;;-1.20;99.90;;;;;;5139638;28;20184;-83
2021/03/01 06:17:13;;;;;;;17.50;8.70;;;-1.10;99.90;;;;;;5139457;28;20208;-83
2021/03/01 06:19:51;;;;;;;20.25;11.90;;;-1.00;99.90;;;;;;5107642;28;20232;-84
2021/03/01 06:22:19;;;;;;;21.50;9.20;;;-0.90;99.90;;;;;;5097473;28;20276;-84
2021/03/01 06:25:00;;;;;;;21.42;10.35;;;-0.90;99.90;;;;;;5094770;28;20208;-84
2021/03/01 06:27:27;;;;;;;16.70;10.43;;;-0.90;99.90;;;;;;5109334;28;20257;-84
2021/03/01 06:30:11;;;;;;;19.92;11.30;;;-1.00;99.90;;;;;;5110942;28;20215;-84
2021/03/01 06:32:38;;;;;;;15.82;9.95;;;-1.00;99.90;;;;;;5112017;28;20276;-85
2021/03/01 06:35:27;;;;;;;20.77;10.63;;;-0.90;99.90;;;;;;5115832;28;20200;-84
2021/03/01 06:38:21;;;;;;;21.27;12.05;;;-0.80;99.90;;;;;;5115349;28;20287;-84
2021/03/01 06:41:07;;;;;;;18.23;10.60;;;-0.70;99.90;;;;;;5114083;28;20227;-84
2021/03/01 06:43:33;;;;;;;21.88;11.90;;;-0.60;99.90;;;;;;5113377;28;20674;-84
2021/03/01 06:46:07;;;;;;;21.80;11.68;;;-0.50;99.90;;;;;;5114025;28;20227;-85
2021/03/01 06:48:34;;;;;;;19.45;10.52;;;-0.40;99.90;;;;;;5114162;28;20215;-85
2021/03/01 06:51:01;;;;;;;17.10;9.68;;;-0.30;99.90;;;;;;5113325;28;20200;-85
2021/03/01 06:53:28;;;;;;;13.32;10.05;;;-0.20;99.90;;;;;;5114537;28;20221;-85
2021/03/01 06:55:57;;;;;;;20.98;13.48;;;-0.10;99.90;;;;;;5114300;28;20706;-84
2021/03/01 06:58:25;;;;;;;26.50;12.27;;;0.00;99.90;;;;;;5112861;28;20200;-83
2021/03/01 07:01:03;;;;;;;17.05;10.75;;;0.00;99.90;;;;;;5114394;28;20207;-86
2021/03/01 07:03:30;;;;;;;16.50;10.80;;;0.00;99.90;;;;;;5111408;28;20203;-84
2021/03/01 07:05:57;;;;;;;14.60;9.10;;;0.10;99.90;;;;;;5114927;28;20290;-84
2021/03/01 07:08:39;;;;;;;15.50;10.18;;;0.10;99.90;;;;;;5114457;28;20239;-84
2021/03/01 07:11:26;;;;;;;18.95;11.32;;;0.10;99.90;;;;;;5113927;28;20252;-84
2021/03/01 07:13:55;;;;;;;16.00;11.65;;;0.20;99.90;;;;;;5114129;28;20216;-85
2021/03/01 07:16:21;;;;;;;19.67;11.52;;;0.40;99.90;;;;;;5114119;28;20232;-85
2021/03/01 07:18:49;;;;;;;16.85;11.13;;;0.60;99.90;;;;;;5114690;28;20287;-84
2021/03/01 07:21:15;;;;;;;16.70;9.57;;;0.90;99.90;;;;;;5114226;28;20298;-84
2021/03/01 07:23:44;;;;;;;23.27;12.02;;;1.10;99.90;;;;;;5115183;28;20295;-85
2021/03/01 07:26:14;;;;;;;19.55;11.63;;;1.10;99.90;;;;;;5116349;28;20668;-85
2021/03/01 07:28:43;;;;;;;19.00;11.13;;;1.20;99.90;;;;;;5115356;28;20677;-85
2021/03/01 07:31:11;;;;;;;14.50;9.02;;;1.40;99.90;;;;;;5114047;28;20204;-86
2021/03/01 07:33:38;;;;;;;16.67;11.95;;;1.50;99.90;;;;;;5113668;28;20245;-82
2021/03/01 07:36:06;;;;;;;15.52;9.27;;;1.70;99.90;;;;;;5113313;28;20208;-83
2021/03/01 07:38:34;;;;;;;16.67;9.30;;;1.80;99.90;;;;;;5113435;28;20249;-83
2021/03/01 07:41:02;;;;;;;15.65;10.45;;;1.90;99.90;;;;;;5117216;28;20242;-82
2021/03/01 07:43:31;;;;;;;19.98;9.88;;;2.00;99.90;;;;;;5093671;28;20227;-82
2021/03/01 07:45:58;;;;;;;16.40;11.07;;;2.00;99.90;;;;;;5116697;28;20257;-82
2021/03/01 07:48:34;;;;;;;13.25;10.80;;;2.10;99.90;;;;;;5117761;28;20238;-83
2021/03/01 07:51:00;;;;;;;12.65;10.13;;;2.10;99.90;;;;;;5117966;28;20283;-82
2021/03/01 07:53:50;;;;;;;16.30;11.48;;;2.10;99.90;;;;;;5117715;28;20295;-82
2021/03/01 07:56:51;;;;;;;14.50;9.50;;;2.20;99.90;;;;;;5117689;28;20223;-82
2021/03/01 07:59:32;;;;;;;13.45;9.40;;;2.30;99.90;;;;;;5117750;28;20207;-82
2021/03/01 08:02:13;;;;;;;13.70;8.85;;;2.40;99.90;;;;;;5117266;28;20563;-82
2021/03/01 08:04:40;;;;;;;17.73;10.55;;;2.40;99.90;;;;;;5117160;28;20286;-81
2021/03/01 08:07:06;;;;;;;16.80;10.07;;;2.40;99.90;;;;;;5117288;28;20289;-80
2021/03/01 08:09:51;;;;;;;11.93;9.52;;;2.60;99.90;;;;;;5116756;28;20298;-81
2021/03/01 08:12:54;;;;;;;19.00;11.27;;;2.70;99.90;;;;;;5115695;28;20200;-81
2021/03/01 08:15:24;;;;;;;18.75;11.77;;;3.00;99.90;;;;;;5116001;28;20609;-82
2021/03/01 08:17:51;;;;;;;14.40;10.52;;;3.20;99.90;;;;;;5116749;28;20200;-80
2021/03/01 08:20:30;;;;;;;17.42;10.73;;;3.30;99.90;;;;;;5115560;28;20207;-77
2021/03/01 08:23:30;;;;;;;20.33;13.23;;;3.60;99.90;;;;;;5116480;28;20206;-83
2021/03/01 08:25:59;;;;;;;17.65;11.55;;;3.90;99.90;;;;;;5034068;28;20241;-89
2021/03/01 08:28:44;;;;;;;16.65;12.45;;;4.00;99.90;;;;;;5099314;28;20290;-85
2021/03/01 08:31:29;;;;;;;16.90;10.43;;;4.20;99.90;;;;;;5117665;28;20275;-80
2021/03/01 08:34:38;;;;;;;14.07;10.55;;;4.20;99.90;;;;;;5116922;28;20208;-87
2021/03/01 08:37:06;;;;;;;13.82;7.90;;;4.40;99.90;;;;;;5085863;28;20216;-88
2021/03/01 08:39:54;;;;;;;24.30;13.23;;;4.40;99.90;;;;;;5139509;28;20258;-85
2021/03/01 08:42:42;;;;;;;21.15;12.45;;;4.60;99.90;;;;;;5139410;28;20244;-84
2021/03/01 08:45:11;;;;;;;15.75;9.57;;;4.80;99.90;;;;;;5130957;28;20294;-83
2021/03/01 08:47:48;;;;;;;14.70;10.88;;;5.00;99.90;;;;;;5113322;28;20248;-83
2021/03/01 08:50:15;;;;;;;15.50;10.68;;;5.10;99.90;;;;;;5115163;28;20196;-82
2021/03/01 08:52:47;;;;;;;12.43;9.57;;;5.20;99.90;;;;;;5115474;28;20206;-82
2021/03/01 08:55:16;;;;;;;15.15;9.13;;;5.30;99.90;;;;;;5115996;28;20211;-83
2021/03/01 08:57:57;;;;;;;11.30;8.52;;;5.40;99.90;;;;;;5115031;28;20257;-83
2021/03/01 09:00:24;;;;;;;11.60;9.88;;;5.60;99.90;;;;;;5115917;28;20243;-82
2021/03/01 09:03:12;;;;;;;13.27;9.23;;;5.60;99.90;;;;;;5115694;28;20544;-83
2021/03/01 09:05:39;;;;;;;18.42;10.20;;;5.80;99.90;;;;;;5115394;28;20196;-82
2021/03/01 09:08:05;;;;;;;12.90;8.60;;;5.80;99.90;;;;;;5115814;28;20327;-84
2021/03/01 09:10:42;;;;;;;14.80;9.73;;;5.80;99.90;;;;;;5080052;28;20291;-84
2021/03/01 09:13:11;;;;;;;10.40;8.30;;;6.00;99.90;;;;;;5114604;28;20603;-82
2021/03/01 09:15:37;;;;;;;13.32;8.90;;;6.10;99.90;;;;;;5115491;28;20196;-83
2021/03/01 09:18:09;;;;;;;18.13;9.35;;;6.20;99.90;;;;;;5110954;28;20320;-82
2021/03/01 09:20:48;;;;;;;12.25;9.02;;;6.40;99.90;;;;;;5094981;28;20216;-83
2021/03/01 09:23:42;;;;;;;11.63;7.68;;;6.40;99.90;;;;;;5095097;28;20405;-83
2021/03/01 09:26:18;;;;;;;12.63;8.75;;;6.50;99.90;;;;;;5094722;28;20201;-83
2021/03/01 09:28:45;;;;;;;12.85;8.30;;;6.50;99.90;;;;;;5093634;28;20236;-79
2021/03/01 09:31:13;;;;;;;12.50;8.07;;;6.50;99.90;;;;;;5094826;28;20205;-78
2021/03/01 09:33:42;;;;;;;11.73;8.95;;;6.70;99.90;;;;;;5094432;28;20683;-82
2021/03/01 09:36:09;;;;;;;12.23;7.75;;;6.80;99.60;;;;;;5094681;28;20197;-80
2021/03/01 09:38:37;;;;;;;11.00;8.80;;;7.00;99.60;;;;;;5094488;28;20205;-80
2021/03/01 09:41:05;;;;;;;12.90;8.88;;;7.20;99.50;;;;;;5091305;28;20204;-81
2021/03/01 09:43:32;;;;;;;11.75;7.22;;;7.30;99.10;;;;;;5093611;28;20300;-83
2021/03/01 09:45:59;;;;;;;17.38;7.88;;;7.40;98.20;;;;;;5094470;28;20236;-82
2021/03/01 09:48:27;;;;;;;12.68;8.45;;;7.50;97.70;;;;;;5098504;28;20234;-83
2021/03/01 09:50:55;;;;;;;12.57;7.93;;;7.50;97.40;;;;;;5114860;28;20610;-85
2021/03/01 09:53:23;;;;;;;10.82;8.45;;;7.60;97.70;;;;;;5115109;28;20667;-82
2021/03/01 09:55:52;;;;;;;11.57;8.63;;;7.60;97.30;;;;;;5062670;28;20283;-81
2021/03/01 09:58:26;;;;;;;17.27;9.02;;;7.80;97.30;;;;;;5113675;28;20295;-80
2021/03/01 10:00:53;;;;;;;12.07;8.02;;;7.90;96.50;;;;;;5114843;28;20296;-83
2021/03/01 10:03:19;;;;;;;14.75;7.70;;;8.10;95.60;;;;;;5113954;28;20678;-83
2021/03/01 10:05:50;;;;;;;9.63;7.00;;;8.30;95.80;;;;;;5114647;28;20294;-82
2021/03/01 10:08:24;;;;;;;8.03;6.23;;;8.40;95.60;;;;;;5114176;28;20522;-82
2021/03/01 10:10:52;;;;;;;9.90;7.35;;;8.50;95.00;;;;;;5114564;28;20456;-83
2021/03/01 10:13:27;;;;;;;17.00;7.77;;;8.60;95.10;;;;;;5113175;28;20654;-82
2021/03/01 10:15:54;;;;;;;11.83;7.10;;;8.80;94.10;;;;;;5120043;28;20535;-80
2021/03/01 10:18:22;;;;;;;12.07;6.03;;;8.80;94.70;;;;;;5129730;28;20549;-80
2021/03/01 10:20:51;;;;;;;7.90;6.80;;;9.00;93.10;;;;;;5119829;28;20446;-82
2021/03/01 10:23:31;;;;;;;9.30;5.90;;;9.20;93.50;;;;;;5115342;28;20541;-82
2021/03/01 10:26:15;;;;;;;11.77;8.20;;;9.40;94.20;;;;;;5132208;28;20506;-82
2021/03/01 10:28:46;;;;;;;10.60;7.80;;;9.50;93.30;;;;;;5126753;28;20491;-82
2021/03/01 10:31:14;;;;;;;10.30;7.43;;;9.50;94.10;;;;;;5126056;28;20438;-85
2021/03/01 10:33:57;;;;;;;10.90;5.70;;;9.70;93.80;;;;;;5115473;28;20545;-83
2021/03/01 10:36:28;;;;;;;8.13;5.60;;;9.70;91.70;;;;;;5114475;28;20971;-82
2021/03/01 10:39:06;;;;;;;6.97;5.10;;;9.80;91.40;;;;;;5115514;28;20486;-84
2021/03/01 10:41:40;;;;;;;7.70;5.53;;;9.90;90.60;;;;;;5116689;28;20568;-82
2021/03/01 10:44:08;;;;;;;6.47;5.20;;;10.00;89.40;;;;;;5120061;28;20518;-77
2021/03/01 10:46:42;;;;;;;8.13;5.80;;;10.10;88.50;;;;;;5122023;28;20449;-81
2021/03/01 10:49:20;;;;;;;6.73;5.30;;;10.30;86.20;;;;;;5120765;28;20469;-83
2021/03/01 10:51:50;;;;;;;5.03;4.10;;;10.60;82.90;;;;;;5122952;28;20486;-82
2021/03/01 10:54:18;;;;;;;5.07;4.57;;;10.80;83.40;;;;;;5121569;28;20475;-83
2021/03/01 10:56:44;;;;;;;5.83;3.67;;;11.00;82.50;;;;;;5118488;28;20590;-84
2021/03/01 10:59:11;;;;;;;7.80;4.73;;;11.20;79.20;;;;;;5121261;28;20530;-81
2021/03/01 11:01:39;;;;;;;5.77;3.93;;;11.40;79.30;;;;;;5121348;28;20473;-81
2021/03/01 11:04:06;;;;;;;9.83;4.73;;;11.50;78.00;;;;;;5120988;28;20484;-81
2021/03/01 11:06:33;;;;;;;4.80;4.30;;;11.60;78.10;;;;;;5113133;28;20553;-82
2021/03/01 11:08:59;;;;;;;4.70;3.93;;;11.70;76.60;;;;;;5119061;28;20485;-82
2021/03/01 11:11:26;;;;;;;5.60;4.20;;;11.80;75.90;;;;;;5118661;28;20450;-81
2021/03/01 11:13:53;;;;;;;3.60;2.90;;;11.90;75.80;;;;;;5120637;28;20450;-81
2021/03/01 11:16:19;;;;;;;5.10;3.83;;;12.00;76.50;;;;;;5122268;28;20477;-81
2021/03/01 11:18:46;;;;;;;4.80;4.30;;;12.00;77.10;;;;;;5124006;28;20907;-82
2021/03/01 11:21:13;;;;;;;3.83;3.40;;;12.20;74.60;;;;;;5128173;28;20456;-82
2021/03/01 11:23:39;;;;;;;5.73;4.30;;;12.20;73.60;;;;;;5126219;28;20477;-84
2021/03/01 11:26:06;;;;;;;5.40;3.60;;;12.30;75.60;;;;;;5123290;28;20446;-77
2021/03/01 11:28:33;;;;;;;4.73;3.83;;;12.40;74.80;;;;;;5120857;28;20526;-83
2021/03/01 11:31:00;;;;;;;6.10;4.40;;;12.50;74.30;;;;;;5122928;28;20509;-85
2021/03/01 11:33:26;;;;;;;6.57;4.20;;;12.50;72.60;;;;;;5119560;28;20448;-83
2021/03/01 11:35:54;;;;;;;5.33;3.83;;;12.50;72.80;;;;;;5117466;28;20806;-85
2021/03/01 11:38:22;;;;;;;5.33;4.07;;;12.60;72.00;;;;;;5117395;28;20453;-84
2021/03/01 11:40:48;;;;;;;3.67;3.37;;;12.70;72.00;;;;;;5117317;28;20466;-83
2021/03/01 11:43:15;;;;;;;6.83;4.33;;;12.80;71.60;;;;;;5116560;28;20925;-81
2021/03/01 11:45:42;;;;;;;7.43;4.53;;;12.80;71.20;;;;;;5117920;28;20463;-83
2021/03/01 11:48:11;;;;;;;5.07;3.90;;;12.80;72.60;;;;;;5117384;28;20622;-82
2021/03/01 11:50:38;;;;;;;7.20;4.60;;;12.70;72.30;;;;;;5117061;28;20536;-83
2021/03/01 11:53:05;;;;;;;5.57;5.03;;;12.70;72.60;;;;;;5116369;28;20523;-82
2021/03/01 11:55:32;;;;;;;6.60;5.00;;;12.70;74.00;;;;;;5117454;28;20532;-83
2021/03/01 11:57:58;;;;;;;5.97;4.50;;;12.70;71.80;;;;;;5115621;28;20482;-83
2021/03/01 12:00:25;;;;;;;6.30;5.30;;;12.70;72.80;;;;;;5117010;28;20481;-81
2021/03/01 12:02:54;;;;;;;9.30;4.57;;;12.80;72.20;;;;;;5117137;28;20473;-85
2021/03/01 12:05:20;;;;;;;5.90;4.30;;;12.70;70.20;;;;;;5117018;28;20540;-86
2021/03/01 12:07:47;;;;;;;6.20;3.83;;;12.70;70.30;;;;;;5117305;28;20572;-89
2021/03/01 12:10:14;;;;;;;7.43;4.20;;;12.70;72.00;;;;;;5116574;28;20450;-83
2021/03/01 12:12:41;;;;;;;6.13;5.30;;;13.00;70.10;;;;;;5115629;28;20894;-88
2021/03/01 12:15:08;;;;;;;6.57;5.30;;;13.00;70.50;;;;;;5116927;28;20528;-84
2021/03/01 12:17:36;;;;;;;5.00;4.60;;;12.90;70.60;;;;;;5113458;28;21522;-86
2021/03/01 12:20:04;;;;;;;5.10;4.60;;;13.00;70.70;;;;;;5116121;28;20549;-88
2021/03/01 12:22:31;;;;;;;8.53;5.33;;;13.00;69.90;;;;;;5116268;28;20590;-83
2021/03/01 12:24:59;;;;;;;6.17;4.50;;;13.10;71.30;;;;;;5116583;28;20525;-90
2021/03/01 12:27:25;;;;;;;5.67;4.20;;;13.30;70.60;;;;;;5115605;28;20907;-83
2021/03/01 12:29:52;;;;;;;8.30;5.10;;;13.20;69.00;;;;;;5116371;28;20554;-90
2021/03/01 12:32:19;;;;;;;10.70;4.90;;;13.20;68.70;;;;;;5116527;28;20446;-85
2021/03/01 12:34:45;;;;;;;4.40;3.93;;;13.30;68.10;;;;;;5117282;28;20996;-84
2021/03/01 12:37:14;;;;;;;4.83;4.40;;;13.30;69.10;;;;;;5116929;28;20805;-91
2021/03/01 12:39:41;;;;;;;3.87;3.57;;;13.40;67.40;;;;;;5116304;28;20515;-87
2021/03/01 12:42:08;;;;;;;4.50;3.77;;;13.50;67.00;;;;;;5116069;28;20543;-88
2021/03/01 12:44:35;;;;;;;4.80;4.00;;;13.60;66.10;;;;;;5116584;28;20530;-83
2021/03/01 12:47:02;;;;;;;4.60;4.03;;;13.60;65.60;;;;;;5116233;28;20992;-86
2021/03/01 12:49:28;;;;;;;4.47;3.83;;;13.70;66.00;;;;;;5116021;28;20553;-84
2021/03/01 12:51:54;;;;;;;6.90;4.97;;;13.70;66.20;;;;;;5115869;28;20483;-84
2021/03/01 12:54:22;;;;;;;6.43;5.30;;;13.80;66.60;;;;;;5116101;28;20593;-85
2021/03/01 12:56:48;;;;;;;4.63;4.17;;;13.90;66.60;;;;;;5114613;28;20455;-85